KTTD/TTD METAR and TAF weather

Enter ICAO airport designator
Station Type Date Time Source
KTTD METAR 2022/06/25 21:53 UTC NOAA

KTTD 252153Z 07014G21KT 10SM CLR 32/08 A2999 RMK AO2 PK WND 07026/2056 SLP155 T03220078


Station Type Date Time Source
KTTD Decoded METAR 2022/06/25 21:53 UTC NOAA

PORTLAND-TROUTDALE AIRPORT, OR, United States (KTTD) 45-33N 122-25W 14M
Jun 25, 2022 - 05:53 PM EDT / 2022.06.25 2153 UTC
Wind: from the ENE (070 degrees) at 16 MPH (14 KT) gusting to 24 MPH (21 KT):0
Visibility: 10 mile(s):0
Sky conditions: clear
Temperature: 90.0 F (32.2 C)
Dew Point: 46.0 F (7.8 C)
Relative Humidity: 21%
Pressure (altimeter): 29.99 in. Hg (1015 hPa)
ob: KTTD 252153Z 07014G21KT 10SM CLR 32/08 A2999 RMK AO2 PK WND 07026/2056 SLP155 T03220078
cycle: 22

Station Type Date Time Source
KTTD TAF 2022/06/25 18:42 UTC NOAA

TAF KTTD 251740Z 2518/2618 09017G26KT P6SM SKC
FM260400 09010KT P6SM SKC

Example: see airport list